createdAt,value
2023-08-18T04:01:53.793Z,18.70
2023-08-18T04:06:06.608Z,18.63
2023-08-18T04:10:18.193Z,18.61
2023-08-18T04:14:29.785Z,18.59
2023-08-18T04:18:42.460Z,18.58
2023-08-18T04:22:54.046Z,18.56
2023-08-18T04:27:05.692Z,18.56
2023-08-18T04:31:17.507Z,18.61
2023-08-18T04:35:34.725Z,18.56
2023-08-18T04:39:46.919Z,18.51
2023-08-18T04:44:00.155Z,18.54
2023-08-18T04:48:14.534Z,18.54
2023-08-18T04:52:26.352Z,18.55
2023-08-18T04:56:38.797Z,18.54
2023-08-18T05:00:51.414Z,18.53
2023-08-18T05:05:04.379Z,18.56
2023-08-18T05:09:16.064Z,18.59
2023-08-18T05:13:27.640Z,18.67
2023-08-18T05:17:39.258Z,18.70
2023-08-18T05:21:50.830Z,18.76
2023-08-18T05:26:02.795Z,18.77
2023-08-18T05:30:14.742Z,18.76
2023-08-18T05:34:26.503Z,18.69
2023-08-18T05:38:38.081Z,18.71
2023-08-18T05:42:50.127Z,18.76
2023-08-18T05:47:01.662Z,18.83
2023-08-18T05:51:13.205Z,18.80
2023-08-18T05:55:25.228Z,18.95
2023-08-18T05:59:37.106Z,18.90
2023-08-18T06:03:48.686Z,18.94
2023-08-18T06:08:00.261Z,19.10
2023-08-18T06:12:11.863Z,19.08
2023-08-18T06:16:23.465Z,19.26
2023-08-18T06:20:35.148Z,19.40
2023-08-18T06:24:46.746Z,19.89
2023-08-18T06:28:58.285Z,20.50
2023-08-18T06:33:09.910Z,20.73
2023-08-18T06:37:21.516Z,21.00
2023-08-18T06:41:33.074Z,21.29
2023-08-18T06:45:44.625Z,21.29
2023-08-18T06:49:56.185Z,22.24
2023-08-18T06:54:07.810Z,23.46
2023-08-18T06:58:19.827Z,24.54
2023-08-18T07:02:31.618Z,25.14
2023-08-18T07:06:45.549Z,25.25
2023-08-18T07:10:57.412Z,25.71
2023-08-18T07:15:09.204Z,25.77
2023-08-18T07:19:20.772Z,25.63
2023-08-18T07:23:32.352Z,25.45
2023-08-18T07:27:44.080Z,24.98
2023-08-18T07:31:56.493Z,25.41
2023-08-18T07:36:08.750Z,24.97
2023-08-18T07:40:20.555Z,25.62
2023-08-18T07:44:32.122Z,24.72
2023-08-18T07:48:45.895Z,24.86
2023-08-18T07:52:57.470Z,24.54
2023-08-18T07:57:09.088Z,24.53
2023-08-18T08:01:20.767Z,24.70
2023-08-18T08:05:33.978Z,24.73
2023-08-18T08:09:45.610Z,24.64
2023-08-18T08:13:57.176Z,24.45
2023-08-18T08:18:12.289Z,24.33
2023-08-18T08:22:25.049Z,24.31
2023-08-18T08:26:36.613Z,24.17
2023-08-18T08:30:48.331Z,24.45
2023-08-18T08:34:59.880Z,24.24
2023-08-18T08:39:11.489Z,24.42
2023-08-18T08:43:23.216Z,24.27
2023-08-18T08:47:35.059Z,24.22
2023-08-18T08:51:49.625Z,24.47
2023-08-18T08:56:09.195Z,24.49
2023-08-18T09:00:21.578Z,24.56
2023-08-18T09:04:33.170Z,24.65
2023-08-18T09:08:44.875Z,24.70
2023-08-18T09:12:56.470Z,24.77
2023-08-18T09:17:08.489Z,24.88
2023-08-18T09:21:20.352Z,24.93
2023-08-18T09:25:34.502Z,25.06
2023-08-18T09:29:46.066Z,25.18
2023-08-18T09:33:57.995Z,25.29
2023-08-18T09:38:14.448Z,25.37
2023-08-18T09:42:26.381Z,25.56
2023-08-18T09:46:38.793Z,25.62
2023-08-18T09:50:54.475Z,25.81
2023-08-18T09:55:17.458Z,25.88
2023-08-18T09:59:35.526Z,25.96
2023-08-18T10:03:48.040Z,26.07
2023-08-18T10:08:00.406Z,26.26
2023-08-18T10:12:12.365Z,26.27
2023-08-18T10:16:24.192Z,26.30
2023-08-18T10:20:36.300Z,26.56
2023-08-18T10:24:49.020Z,26.66
2023-08-18T10:29:26.271Z,26.58
2023-08-18T10:33:50.164Z,26.79
2023-08-18T10:38:05.636Z,27.04
2023-08-18T10:42:17.390Z,27.06
2023-08-18T10:46:38.209Z,27.12
2023-08-18T10:50:49.866Z,27.30
2023-08-18T10:55:01.505Z,27.54
2023-08-18T10:59:13.087Z,27.63
2023-08-18T11:03:26.730Z,27.85
2023-08-18T11:07:38.375Z,27.96
2023-08-18T11:11:49.988Z,28.16
2023-08-18T11:16:01.718Z,28.26
2023-08-18T11:20:14.496Z,28.39
2023-08-18T11:24:26.802Z,28.45
2023-08-18T11:28:38.378Z,28.60
2023-08-18T11:32:54.655Z,28.66
2023-08-18T11:37:11.464Z,28.53
2023-08-18T11:41:23.564Z,28.76
2023-08-18T11:45:35.156Z,28.75
2023-08-18T11:49:46.770Z,28.82
2023-08-18T11:53:58.437Z,28.91
2023-08-18T11:58:14.197Z,29.06
2023-08-18T12:02:27.896Z,29.16
2023-08-18T12:06:40.295Z,29.27
2023-08-18T12:10:54.063Z,29.38
2023-08-18T12:15:06.194Z,29.42
2023-08-18T12:19:20.949Z,29.60
2023-08-18T12:23:32.957Z,29.65
2023-08-18T12:27:48.723Z,29.66
2023-08-18T12:32:00.337Z,29.80
2023-08-18T12:36:12.072Z,29.92
2023-08-18T12:40:23.658Z,30.05
2023-08-18T12:44:36.665Z,30.08
2023-08-18T12:48:50.160Z,30.17
2023-08-18T12:53:01.788Z,30.12
2023-08-18T12:57:13.392Z,29.99
2023-08-18T13:01:24.946Z,30.11
2023-08-18T13:05:36.527Z,30.14
2023-08-18T13:09:48.119Z,29.99
2023-08-18T13:14:03.871Z,30.05
2023-08-18T13:18:15.458Z,30.22
2023-08-18T13:22:27.102Z,30.29
2023-08-18T13:26:40.515Z,30.24
2023-08-18T13:30:52.178Z,30.27
2023-08-18T13:35:04.733Z,30.33
2023-08-18T13:39:16.991Z,30.17
2023-08-18T13:43:28.887Z,30.23
2023-08-18T13:47:40.574Z,30.38
2023-08-18T13:51:52.137Z,30.55
2023-08-18T13:56:06.439Z,30.53
2023-08-18T14:00:18.367Z,30.64
2023-08-18T14:04:30.065Z,30.62
2023-08-18T14:08:41.835Z,30.72
2023-08-18T14:12:53.387Z,30.62
2023-08-18T14:17:08.528Z,30.57
2023-08-18T14:21:20.383Z,30.67
2023-08-18T14:25:33.332Z,30.79
2023-08-18T14:29:46.586Z,30.71
2023-08-18T14:33:58.209Z,30.75
2023-08-18T14:38:09.789Z,30.88
2023-08-18T14:42:21.443Z,30.72
2023-08-18T14:46:32.988Z,30.78
2023-08-18T14:50:45.057Z,30.82
2023-08-18T14:54:56.656Z,30.98
2023-08-18T14:59:08.212Z,31.03
2023-08-18T15:03:19.897Z,31.03
2023-08-18T15:07:31.651Z,30.96
2023-08-18T15:11:43.422Z,30.90
2023-08-18T15:15:55.094Z,30.88
2023-08-18T15:20:07.694Z,30.84
2023-08-18T15:24:21.347Z,30.80
2023-08-18T15:28:32.940Z,30.86
2023-08-18T15:32:44.563Z,30.85
2023-08-18T15:36:56.251Z,30.85
2023-08-18T15:41:08.204Z,30.84
2023-08-18T15:45:19.813Z,30.79
2023-08-18T15:49:31.434Z,30.77
2023-08-18T15:53:43.185Z,30.78
2023-08-18T15:57:55.959Z,30.72
2023-08-18T16:02:07.606Z,30.71
2023-08-18T16:06:19.241Z,30.72
2023-08-18T16:10:30.852Z,30.60
2023-08-18T16:18:57.627Z,30.50
2023-08-18T16:23:09.165Z,30.54
2023-08-18T16:27:20.789Z,30.54
2023-08-18T16:31:32.405Z,30.45
2023-08-18T16:35:45.250Z,30.43
2023-08-18T16:39:58.610Z,30.45
2023-08-18T16:44:10.218Z,30.41
2023-08-18T16:48:21.940Z,30.32
2023-08-18T16:52:33.618Z,30.30
2023-08-18T16:56:46.537Z,30.26
2023-08-18T17:00:58.166Z,30.25
2023-08-18T17:05:10.126Z,30.22
2023-08-18T17:09:22.785Z,30.18
2023-08-18T17:13:34.347Z,30.08
2023-08-18T17:17:45.982Z,30.00
2023-08-18T17:21:57.564Z,29.84
2023-08-18T17:26:09.140Z,29.56
2023-08-18T17:30:20.686Z,29.19
2023-08-18T17:34:32.252Z,28.84
2023-08-18T17:38:43.822Z,28.67
2023-08-18T17:42:57.233Z,28.53
2023-08-18T17:47:08.847Z,28.25
2023-08-18T17:51:20.398Z,27.93
2023-08-18T17:55:35.923Z,27.61
2023-08-18T17:59:48.458Z,27.40
2023-08-18T18:04:00.027Z,27.19
2023-08-18T18:08:13.180Z,26.96
2023-08-18T18:12:24.760Z,26.74
2023-08-18T18:16:36.484Z,26.54
2023-08-18T18:20:48.047Z,26.40
2023-08-18T18:24:59.877Z,26.33
2023-08-18T18:29:12.519Z,26.15
2023-08-18T18:33:24.081Z,26.08
2023-08-18T18:37:36.076Z,25.88
2023-08-18T18:41:47.677Z,25.65
2023-08-18T18:45:59.771Z,25.46
2023-08-18T18:50:11.360Z,25.35
2023-08-18T18:54:22.976Z,25.15
2023-08-18T18:58:34.531Z,25.09
2023-08-18T19:02:46.335Z,24.99
2023-08-18T19:06:58.053Z,24.86
2023-08-18T19:11:09.600Z,24.76
2023-08-18T19:15:21.153Z,24.61
2023-08-18T19:19:32.732Z,24.44
2023-08-18T19:23:46.138Z,24.29
2023-08-18T19:27:58.949Z,24.15
2023-08-18T19:32:11.077Z,24.07
2023-08-18T19:36:22.689Z,24.01
2023-08-18T19:40:37.887Z,23.92
2023-08-18T19:44:49.485Z,23.88
2023-08-18T19:49:01.021Z,23.80
2023-08-18T19:57:31.523Z,23.62
2023-08-18T20:01:43.275Z,23.47
2023-08-18T20:05:54.860Z,23.37
2023-08-18T20:10:07.110Z,23.32
2023-08-18T20:14:18.753Z,23.26
2023-08-18T20:18:30.338Z,23.15
2023-08-18T20:22:42.694Z,23.09
2023-08-18T20:26:54.302Z,23.00
2023-08-18T20:31:07.449Z,22.92
2023-08-18T20:35:21.033Z,22.90
2023-08-18T20:39:32.699Z,22.82
2023-08-18T20:43:44.351Z,22.79
2023-08-18T20:47:55.972Z,22.81
2023-08-18T20:52:07.588Z,22.81
2023-08-18T20:56:19.150Z,22.69
2023-08-18T21:00:30.756Z,22.66
2023-08-18T21:04:42.317Z,22.67
2023-08-18T21:08:53.932Z,22.68
2023-08-18T21:13:05.538Z,22.66
2023-08-18T21:17:17.582Z,22.61
2023-08-18T21:21:29.125Z,22.59
2023-08-18T21:25:41.541Z,22.59
2023-08-18T21:29:53.123Z,22.53
